createdAt,value
2017-10-19T00:01:25.666Z,15.80
2017-10-19T00:04:02.222Z,15.80
2017-10-19T00:06:41.689Z,16.50
2017-10-19T00:09:09.697Z,15.40
2017-10-19T00:11:35.751Z,18.50
2017-10-19T00:14:26.293Z,16.47
2017-10-19T00:16:52.225Z,15.17
2017-10-19T00:22:14.691Z,17.83
2017-10-19T00:24:40.733Z,19.70
2017-10-19T00:27:09.451Z,17.33
2017-10-19T00:29:39.958Z,18.10
2017-10-19T00:32:17.163Z,18.80
2017-10-19T00:34:44.245Z,17.60
2017-10-19T00:37:23.678Z,18.30
2017-10-19T00:39:55.713Z,17.47
2017-10-19T00:42:44.235Z,16.77
2017-10-19T00:45:23.818Z,17.27
2017-10-19T00:47:53.669Z,17.37
2017-10-19T00:50:23.722Z,20.20
2017-10-19T00:52:51.483Z,15.80
2017-10-19T00:55:20.885Z,17.33
2017-10-19T00:57:54.231Z,17.10
2017-10-19T01:03:22.274Z,15.70
2017-10-19T01:05:59.762Z,14.60
2017-10-19T01:08:37.378Z,16.30
2017-10-19T01:11:04.410Z,15.33
2017-10-19T01:13:41.485Z,17.63
2017-10-19T01:16:07.414Z,18.50
2017-10-19T01:21:31.399Z,18.10
2017-10-19T01:24:00.685Z,17.90
2017-10-19T01:26:33.407Z,16.70
2017-10-19T01:31:55.210Z,15.50
2017-10-19T01:37:35.350Z,16.30
2017-10-19T01:40:05.838Z,17.20
2017-10-19T01:42:31.830Z,17.80
2017-10-19T01:45:02.882Z,18.87
2017-10-19T01:50:22.674Z,17.47
2017-10-19T01:52:50.052Z,18.63
2017-10-19T01:55:27.441Z,17.33
2017-10-19T01:58:19.002Z,18.87
2017-10-19T02:03:38.411Z,19.37
2017-10-19T02:06:16.042Z,19.20
2017-10-19T02:08:49.514Z,18.20
2017-10-19T02:11:23.028Z,18.43
2017-10-19T02:13:50.774Z,18.97
2017-10-19T02:16:16.746Z,18.77
2017-10-19T02:18:50.522Z,17.83
2017-10-19T02:21:18.290Z,18.57
2017-10-19T02:24:06.521Z,16.30
2017-10-19T02:26:36.430Z,16.60
2017-10-19T02:29:10.568Z,16.30
2017-10-19T02:31:38.313Z,15.83
2017-10-19T02:34:06.310Z,15.40
2017-10-19T02:36:36.118Z,16.80
2017-10-19T02:39:11.483Z,16.83
2017-10-19T02:41:47.953Z,17.00
2017-10-19T02:44:17.505Z,17.40
2017-10-19T02:46:43.445Z,16.27
2017-10-19T02:49:09.483Z,15.40
2017-10-19T02:51:46.798Z,15.23
2017-10-19T02:54:16.742Z,16.00
2017-10-19T02:56:53.188Z,15.67
2017-10-19T03:02:17.861Z,15.40
2017-10-19T03:04:44.619Z,13.80
2017-10-19T03:07:32.611Z,14.90
2017-10-19T03:10:02.129Z,15.23
2017-10-19T03:12:28.165Z,15.50
2017-10-19T03:14:54.214Z,14.97
2017-10-19T03:20:25.166Z,20.80
2017-10-19T03:22:55.682Z,16.37
2017-10-19T03:25:29.184Z,17.30
2017-10-19T03:28:03.509Z,17.30
2017-10-19T03:30:45.018Z,16.50
2017-10-19T03:33:21.668Z,13.83
2017-10-19T03:35:56.196Z,17.47
2017-10-19T03:38:48.069Z,17.07
2017-10-19T03:41:19.647Z,16.00
2017-10-19T03:43:51.734Z,14.73
2017-10-19T03:46:18.425Z,16.37
2017-10-19T03:48:58.862Z,15.90
2017-10-19T03:51:38.593Z,15.17
2017-10-19T03:54:15.569Z,17.07
2017-10-19T03:56:48.326Z,16.60
2017-10-19T03:59:25.726Z,18.00
2017-10-19T04:04:52.986Z,16.90
2017-10-19T04:07:42.413Z,16.10
2017-10-19T04:10:12.141Z,18.87
2017-10-19T04:12:38.162Z,16.40
2017-10-19T04:15:04.289Z,15.80
2017-10-19T04:17:34.122Z,17.43
2017-10-19T04:20:00.150Z,16.07
2017-10-19T04:22:26.185Z,16.73
2017-10-19T04:24:59.295Z,17.57
2017-10-19T04:30:32.717Z,19.13
2017-10-19T04:33:07.126Z,21.63
2017-10-19T04:35:50.162Z,18.43
2017-10-19T04:38:20.022Z,19.17
2017-10-19T04:40:46.096Z,19.37
2017-10-19T04:43:27.997Z,18.33
2017-10-19T04:46:00.647Z,16.87
2017-10-19T04:48:45.326Z,18.40
2017-10-19T04:51:15.157Z,18.57
2017-10-19T04:53:51.690Z,17.50
2017-10-19T04:56:29.379Z,18.87
2017-10-19T04:59:11.013Z,18.00
2017-10-19T05:01:36.979Z,16.37
2017-10-19T05:04:03.017Z,17.07
2017-10-19T05:06:31.693Z,18.63
2017-10-19T05:08:57.729Z,19.90
2017-10-19T05:11:27.317Z,17.90
2017-10-19T05:16:47.062Z,16.03
2017-10-19T05:19:19.557Z,18.17
2017-10-19T05:21:45.509Z,17.13
2017-10-19T05:24:13.546Z,18.53
2017-10-19T05:26:45.808Z,18.03
2017-10-19T05:29:20.141Z,16.73
2017-10-19T05:31:51.450Z,17.37
2017-10-19T05:34:17.487Z,15.87
2017-10-19T05:36:50.290Z,17.67
2017-10-19T05:39:17.986Z,16.03
2017-10-19T05:41:43.977Z,18.10
2017-10-19T05:44:11.722Z,17.20
2017-10-19T05:46:37.645Z,16.47
2017-10-19T05:52:07.393Z,16.00
2017-10-19T05:54:41.448Z,15.43
2017-10-19T05:57:16.310Z,15.77
2017-10-19T05:59:42.349Z,16.17
2017-10-19T06:02:08.371Z,15.13
2017-10-19T06:04:34.748Z,15.60
2017-10-19T06:07:11.714Z,14.73
2017-10-19T06:09:49.197Z,14.80
2017-10-19T06:12:31.443Z,15.90
2017-10-19T06:15:03.898Z,14.87
2017-10-19T06:17:37.485Z,14.70
2017-10-19T06:20:26.796Z,14.37
2017-10-19T06:22:56.894Z,15.87
2017-10-19T06:25:30.264Z,14.10
2017-10-19T06:27:56.928Z,14.47
2017-10-19T06:30:36.162Z,16.03
2017-10-19T06:33:16.933Z,16.00
2017-10-19T06:35:43.937Z,15.67
2017-10-19T06:38:17.255Z,15.00
2017-10-19T06:40:50.962Z,17.10
2017-10-19T06:43:37.398Z,16.20
2017-10-19T06:46:21.005Z,15.60
2017-10-19T06:48:49.036Z,13.43
2017-10-19T06:51:18.493Z,13.60
2017-10-19T06:53:51.952Z,14.10
2017-10-19T06:56:36.368Z,14.63
2017-10-19T06:59:26.658Z,14.90
2017-10-19T07:01:59.585Z,14.33
2017-10-19T07:04:33.899Z,14.17
2017-10-19T07:07:01.661Z,14.17
2017-10-19T07:09:28.330Z,13.57
2017-10-19T07:11:54.258Z,14.87
2017-10-19T07:20:06.437Z,13.50
2017-10-19T07:22:33.482Z,17.27
2017-10-19T07:24:59.411Z,14.90
2017-10-19T07:27:28.416Z,14.97
2017-10-19T07:29:54.354Z,15.37
2017-10-19T07:32:23.017Z,17.37
2017-10-19T07:34:48.951Z,15.93
2017-10-19T07:37:15.898Z,17.53
2017-10-19T07:39:41.829Z,17.57
2017-10-19T07:42:11.455Z,17.10
2017-10-19T07:44:41.875Z,19.67
2017-10-19T07:47:11.106Z,17.33
2017-10-19T07:49:50.757Z,19.93
2017-10-19T07:52:20.135Z,20.67
2017-10-19T07:54:46.810Z,19.00
2017-10-19T07:57:23.834Z,17.50
2017-10-19T07:59:49.779Z,18.17
2017-10-19T08:02:18.808Z,19.30
2017-10-19T08:04:44.725Z,16.07
2017-10-19T08:07:21.825Z,16.10
2017-10-19T08:09:58.462Z,18.83
2017-10-19T08:12:34.754Z,18.20
2017-10-19T08:15:12.230Z,18.67
2017-10-19T08:17:42.852Z,19.53
2017-10-19T08:20:12.804Z,19.80
2017-10-19T08:22:38.850Z,19.13
2017-10-19T08:25:05.847Z,17.93
2017-10-19T08:27:31.873Z,18.33
2017-10-19T08:29:57.910Z,18.93
2017-10-19T08:32:28.557Z,20.93
2017-10-19T08:35:02.184Z,17.37
2017-10-19T08:37:32.060Z,17.90
2017-10-19T08:40:01.163Z,19.77
2017-10-19T08:42:38.566Z,17.97
2017-10-19T08:45:05.255Z,19.87
2017-10-19T08:47:31.228Z,19.80
2017-10-19T08:50:06.170Z,20.03
2017-10-19T08:52:34.638Z,18.10
2017-10-19T08:55:07.697Z,20.20
2017-10-19T08:57:34.466Z,21.97
2017-10-19T09:00:03.768Z,20.17
2017-10-19T09:02:30.834Z,19.20
2017-10-19T09:05:11.321Z,19.77
2017-10-19T09:07:42.834Z,19.33
2017-10-19T09:10:08.756Z,22.23
2017-10-19T09:12:36.897Z,19.60
2017-10-19T09:15:06.266Z,19.60
2017-10-19T09:17:36.574Z,20.40
2017-10-19T09:20:02.636Z,18.87
2017-10-19T09:22:28.630Z,18.17
2017-10-19T09:24:54.678Z,20.83
2017-10-19T09:27:32.278Z,19.63
2017-10-19T09:30:04.767Z,18.53
2017-10-19T09:32:32.430Z,21.00
2017-10-19T09:35:06.242Z,19.63
2017-10-19T09:37:36.125Z,22.10
2017-10-19T09:40:02.223Z,21.00
2017-10-19T09:42:28.271Z,20.60
2017-10-19T09:44:57.831Z,18.90
2017-10-19T09:47:42.292Z,17.80
2017-10-19T09:50:09.307Z,22.33
2017-10-19T09:52:36.283Z,18.70
2017-10-19T09:55:02.346Z,20.00
2017-10-19T09:57:30.398Z,19.33
2017-10-19T09:59:57.451Z,19.10
2017-10-19T10:02:31.756Z,21.40
2017-10-19T10:04:58.457Z,18.20
2017-10-19T10:07:27.818Z,21.70
2017-10-19T10:09:53.835Z,18.60
2017-10-19T10:12:24.090Z,19.30
2017-10-19T10:14:51.111Z,19.33
2017-10-19T10:17:21.341Z,19.93
2017-10-19T10:22:46.619Z,20.20
2017-10-19T10:25:23.146Z,19.43
2017-10-19T10:28:02.696Z,17.73
2017-10-19T10:30:35.438Z,19.17
2017-10-19T10:33:02.098Z,19.80
2017-10-19T10:35:28.057Z,25.57
2017-10-19T10:37:54.073Z,19.97
2017-10-19T10:40:24.582Z,22.00
2017-10-19T10:42:52.416Z,19.37
2017-10-19T10:45:18.454Z,20.00
2017-10-19T10:47:44.388Z,18.00
2017-10-19T10:50:11.071Z,17.27
2017-10-19T10:52:37.031Z,18.33
2017-10-19T10:55:03.095Z,17.13
2017-10-19T10:57:29.781Z,16.20
2017-10-19T10:59:55.739Z,16.23
2017-10-19T11:02:24.955Z,18.07
2017-10-19T11:04:50.898Z,16.30
2017-10-19T11:07:20.816Z,15.93
2017-10-19T11:12:54.440Z,15.47
2017-10-19T11:15:20.458Z,15.83
2017-10-19T11:17:49.390Z,15.03
2017-10-19T11:23:11.387Z,16.33
2017-10-19T11:25:50.465Z,13.23
2017-10-19T11:28:26.900Z,15.80
2017-10-19T11:30:53.009Z,12.97
2017-10-19T11:33:28.613Z,15.30
2017-10-19T11:36:05.186Z,14.77
2017-10-19T11:38:36.421Z,16.07
2017-10-19T11:41:13.258Z,15.27
2017-10-19T11:43:41.206Z,15.40
2017-10-19T11:46:07.282Z,16.33
2017-10-19T11:48:37.673Z,12.47
2017-10-19T11:51:03.751Z,14.73
2017-10-19T11:53:45.638Z,15.97
2017-10-19T11:59:18.233Z,14.60
2017-10-19T12:01:44.243Z,13.67
2017-10-19T12:07:07.526Z,17.03
2017-10-19T12:09:56.204Z,14.13
2017-10-19T12:12:23.586Z,12.67
2017-10-19T12:14:49.622Z,14.13
2017-10-19T12:17:17.610Z,12.60
2017-10-19T12:19:52.659Z,12.30
2017-10-19T12:22:33.586Z,11.90
2017-10-19T12:24:59.643Z,11.60
2017-10-19T12:27:28.394Z,11.60
2017-10-19T12:30:01.898Z,11.30
2017-10-19T12:32:35.198Z,14.63
2017-10-19T12:35:01.239Z,12.10
2017-10-19T12:37:27.274Z,11.50
2017-10-19T12:39:55.259Z,12.60
2017-10-19T12:42:32.659Z,10.97
2017-10-19T12:45:03.185Z,11.77
2017-10-19T12:47:38.636Z,10.90
2017-10-19T12:50:05.429Z,9.73
2017-10-19T12:52:39.599Z,10.40
2017-10-19T12:55:13.501Z,9.80
2017-10-19T12:57:54.074Z,9.10
2017-10-19T13:00:30.947Z,11.03
2017-10-19T13:05:59.234Z,9.57
2017-10-19T13:08:39.709Z,9.83
2017-10-19T13:11:16.401Z,8.87
2017-10-19T13:13:50.386Z,7.90
2017-10-19T13:16:16.313Z,10.03
2017-10-19T13:18:48.886Z,10.00
2017-10-19T13:21:18.966Z,8.57
2017-10-19T13:23:50.086Z,9.07
2017-10-19T13:26:29.710Z,8.23
2017-10-19T13:28:57.736Z,8.70
2017-10-19T13:31:23.793Z,8.10
2017-10-19T13:33:55.862Z,7.87
2017-10-19T13:36:34.457Z,9.77
2017-10-19T13:39:16.111Z,8.93
2017-10-19T13:41:44.116Z,9.80
2017-10-19T13:44:10.137Z,9.87
2017-10-19T13:49:41.166Z,12.33
2017-10-19T13:55:02.510Z,10.57
2017-10-19T13:57:28.550Z,10.77
2017-10-19T14:00:12.436Z,9.93
2017-10-19T14:02:39.419Z,9.60
2017-10-19T14:05:22.598Z,9.03
2017-10-19T14:08:02.033Z,10.87
2017-10-19T14:10:28.013Z,9.33
2017-10-19T14:15:46.758Z,9.77
2017-10-19T14:18:12.714Z,10.87
2017-10-19T14:21:02.561Z,9.33
2017-10-19T14:26:43.534Z,8.30
2017-10-19T14:29:10.318Z,8.50
2017-10-19T14:31:43.521Z,9.90
2017-10-19T14:34:22.453Z,9.90
2017-10-19T14:39:54.629Z,10.40
2017-10-19T14:42:36.022Z,9.20
2017-10-19T14:45:04.059Z,10.80
2017-10-19T14:47:34.126Z,9.30
2017-10-19T14:50:01.162Z,9.50
2017-10-19T14:52:33.734Z,10.63
2017-10-19T14:55:03.262Z,10.07
2017-10-19T14:57:30.390Z,10.70
2017-10-19T14:59:58.138Z,9.40
2017-10-19T15:02:24.149Z,9.93
2017-10-19T15:04:50.126Z,10.80
2017-10-19T15:07:18.062Z,9.40
2017-10-19T15:09:55.741Z,9.60
2017-10-19T15:15:14.933Z,10.53
2017-10-19T15:17:40.961Z,8.60
2017-10-19T15:20:27.954Z,9.37
2017-10-19T15:25:48.346Z,8.40
2017-10-19T15:28:28.566Z,9.27
2017-10-19T15:30:59.060Z,9.00
2017-10-19T15:33:25.099Z,8.93
2017-10-19T15:36:12.993Z,9.77
2017-10-19T15:41:32.622Z,9.93
2017-10-19T15:44:07.048Z,8.60
2017-10-19T15:46:37.469Z,10.03
2017-10-19T15:49:25.462Z,8.60
2017-10-19T15:51:58.694Z,9.93
2017-10-19T15:54:26.491Z,9.90
2017-10-19T15:57:02.986Z,9.83
2017-10-19T15:59:32.639Z,10.17
2017-10-19T16:02:09.233Z,9.00
2017-10-19T16:04:35.922Z,11.77
2017-10-19T16:09:58.377Z,8.67
2017-10-19T16:12:38.996Z,10.20
2017-10-19T16:15:20.689Z,12.03
2017-10-19T16:17:57.447Z,11.63
2017-10-19T16:20:32.894Z,12.70
2017-10-19T16:23:07.326Z,10.87
2017-10-19T16:25:33.301Z,12.30
2017-10-19T16:28:04.146Z,11.13
2017-10-19T16:30:49.916Z,11.83
2017-10-19T16:33:29.306Z,11.80
2017-10-19T16:36:01.770Z,13.53
2017-10-19T16:41:23.876Z,14.40
2017-10-19T16:43:49.953Z,12.40
2017-10-19T16:46:15.905Z,15.10
2017-10-19T16:49:02.429Z,14.80
2017-10-19T16:51:35.046Z,14.90
2017-10-19T16:54:02.809Z,14.17
2017-10-19T16:56:54.591Z,17.33
2017-10-19T16:59:21.586Z,16.97
2017-10-19T17:01:58.890Z,18.30
2017-10-19T17:04:38.486Z,17.53
2017-10-19T17:07:04.430Z,17.63
2017-10-19T17:09:39.475Z,16.77
2017-10-19T17:12:18.898Z,16.40
2017-10-19T17:14:49.024Z,14.80
2017-10-19T17:17:15.109Z,17.87
2017-10-19T17:19:41.877Z,17.00
2017-10-19T17:22:14.685Z,15.93
2017-10-19T17:24:46.733Z,14.57
2017-10-19T17:27:12.755Z,14.43
2017-10-19T17:29:42.682Z,14.60
2017-10-19T17:32:08.702Z,12.57
2017-10-19T17:34:45.529Z,12.50
2017-10-19T17:40:18.633Z,12.13
2017-10-19T17:42:55.269Z,12.97
2017-10-19T17:51:11.293Z,15.00
2017-10-19T17:53:51.898Z,14.50
2017-10-19T17:56:28.624Z,13.80
2017-10-19T17:59:20.285Z,13.13
2017-10-19T18:02:08.326Z,14.17
2017-10-19T18:04:41.158Z,13.47
2017-10-19T18:07:18.034Z,13.73
2017-10-19T18:09:52.641Z,13.20
2017-10-19T18:12:20.395Z,13.33
2017-10-19T18:14:46.429Z,12.50
2017-10-19T18:17:12.462Z,11.60
2017-10-19T18:19:53.877Z,14.10
2017-10-19T18:22:39.353Z,12.83
2017-10-19T18:25:09.037Z,12.20
2017-10-19T18:27:40.271Z,13.73
2017-10-19T18:30:09.770Z,13.37
2017-10-19T18:32:47.285Z,13.00
2017-10-19T18:38:09.216Z,13.60
2017-10-19T18:40:42.998Z,15.70
2017-10-19T18:43:19.523Z,13.97
2017-10-19T18:45:49.894Z,14.77
2017-10-19T18:48:26.529Z,12.77
2017-10-19T18:50:53.337Z,15.77
2017-10-19T18:53:19.367Z,13.20
2017-10-19T18:55:45.385Z,13.80
2017-10-19T18:58:12.353Z,16.03
2017-10-19T19:00:48.852Z,16.53
2017-10-19T19:03:19.457Z,15.77
2017-10-19T19:05:46.402Z,15.00
2017-10-19T19:08:23.493Z,16.80
2017-10-19T19:10:49.397Z,18.97
2017-10-19T19:13:15.325Z,18.40
2017-10-19T19:15:41.241Z,16.27
2017-10-19T19:18:08.209Z,15.23
2017-10-19T19:20:35.152Z,16.40
2017-10-19T19:23:20.575Z,15.90
2017-10-19T19:25:48.606Z,17.10
2017-10-19T19:28:14.636Z,16.80
2017-10-19T19:30:40.601Z,15.40
2017-10-19T19:33:10.489Z,16.27
2017-10-19T19:35:36.431Z,17.57
2017-10-19T19:38:19.062Z,17.70
2017-10-19T19:40:48.614Z,16.07
2017-10-19T19:43:29.081Z,17.50
2017-10-19T19:46:02.597Z,15.30
2017-10-19T19:48:47.191Z,16.77
2017-10-19T19:51:18.719Z,16.37
2017-10-19T19:53:46.488Z,17.00
2017-10-19T19:56:17.290Z,15.60
2017-10-19T19:58:53.792Z,15.97
2017-10-19T20:04:14.078Z,16.00
2017-10-19T20:06:59.957Z,14.90
2017-10-19T20:09:25.982Z,16.60
2017-10-19T20:11:53.965Z,15.17
2017-10-19T20:14:20.047Z,17.60
2017-10-19T20:16:55.057Z,15.27
2017-10-19T20:19:21.370Z,13.63
2017-10-19T20:22:08.264Z,14.87
2017-10-19T20:24:34.288Z,14.20
2017-10-19T20:27:06.575Z,14.40
2017-10-19T20:29:58.030Z,15.93
2017-10-19T20:32:37.662Z,15.87
2017-10-19T20:35:15.546Z,15.10
2017-10-19T20:38:02.389Z,15.60
2017-10-19T20:40:34.264Z,14.60
2017-10-19T20:43:06.476Z,14.67
2017-10-19T20:45:37.141Z,15.57
2017-10-19T20:48:16.448Z,14.97
2017-10-19T20:50:49.961Z,16.70
2017-10-19T20:53:33.486Z,17.00
2017-10-19T20:56:00.602Z,16.57
2017-10-19T20:58:27.571Z,14.90
2017-10-19T21:00:54.229Z,15.80
2017-10-19T21:03:25.458Z,14.30
2017-10-19T21:06:08.923Z,13.33
2017-10-19T21:11:30.038Z,14.23
2017-10-19T21:13:57.045Z,15.33
2017-10-19T21:16:22.998Z,14.40
2017-10-19T21:18:55.246Z,14.70
2017-10-19T21:21:21.306Z,16.00
2017-10-19T21:24:01.153Z,14.67
2017-10-19T21:26:29.920Z,14.40
2017-10-19T21:28:59.314Z,13.83
2017-10-19T21:31:25.236Z,14.10
2017-10-19T21:33:57.444Z,14.40
2017-10-19T21:36:31.945Z,14.50
2017-10-19T21:38:57.878Z,14.23
2017-10-19T21:41:24.549Z,15.20
2017-10-19T21:43:50.472Z,14.07
2017-10-19T21:46:16.388Z,13.73
2017-10-19T21:48:43.061Z,15.87
2017-10-19T21:51:09.014Z,15.40
2017-10-19T21:53:37.008Z,13.80
2017-10-19T21:56:02.998Z,13.90
2017-10-19T21:58:32.345Z,15.37
2017-10-19T22:01:01.945Z,13.80
2017-10-19T22:03:27.992Z,12.67
2017-10-19T22:05:54.936Z,14.40
2017-10-19T22:08:27.890Z,16.43
2017-10-19T22:11:05.465Z,14.80
2017-10-19T22:13:33.508Z,13.03
2017-10-19T22:16:03.535Z,17.20
2017-10-19T22:18:37.837Z,16.00
2017-10-19T22:21:06.507Z,15.47
2017-10-19T22:23:48.355Z,15.57
2017-10-19T22:26:20.180Z,14.53
2017-10-19T22:29:05.689Z,15.23
2017-10-19T22:31:53.242Z,14.00
2017-10-19T22:34:23.806Z,14.23
2017-10-19T22:36:52.618Z,14.20
2017-10-19T22:39:36.978Z,14.83
2017-10-19T22:42:08.690Z,15.93
2017-10-19T22:44:34.725Z,16.60
2017-10-19T22:47:00.740Z,17.17
2017-10-19T22:49:37.583Z,15.93
2017-10-19T22:52:15.305Z,14.47
2017-10-19T22:54:55.014Z,16.70
2017-10-19T22:57:24.773Z,13.93
2017-10-19T22:59:50.846Z,15.50
2017-10-19T23:02:16.818Z,16.70
2017-10-19T23:04:42.766Z,14.90
2017-10-19T23:07:08.781Z,14.27
2017-10-19T23:09:49.456Z,13.80
2017-10-19T23:12:31.086Z,16.30
2017-10-19T23:14:57.092Z,14.63
2017-10-19T23:17:23.810Z,14.10
2017-10-19T23:20:00.938Z,13.50
2017-10-19T23:22:28.881Z,14.63
2017-10-19T23:24:54.806Z,15.30
2017-10-19T23:27:36.137Z,15.20
2017-10-19T23:30:03.126Z,14.67
2017-10-19T23:32:37.189Z,14.73
2017-10-19T23:35:03.170Z,16.50
2017-10-19T23:37:29.190Z,17.17
2017-10-19T23:40:07.733Z,14.97
2017-10-19T23:42:41.361Z,15.17
2017-10-19T23:45:09.314Z,14.70
2017-10-19T23:47:49.398Z,15.10
2017-10-19T23:50:23.157Z,14.27
2017-10-19T23:52:49.881Z,13.50
2017-10-19T23:55:30.709Z,13.37
2017-10-19T23:58:01.930Z,14.50
